createdAt,value
2023-02-25T00:01:27.011Z,18.75
2023-02-25T00:03:56.258Z,25.52
2023-02-25T00:06:26.924Z,23.38
2023-02-25T00:08:55.150Z,17.35
2023-02-25T00:11:24.106Z,19.20
2023-02-25T00:13:52.159Z,20.92
2023-02-25T00:16:21.590Z,20.33
2023-02-25T00:18:56.867Z,20.40
2023-02-25T00:21:25.796Z,25.80
2023-02-25T00:23:53.906Z,16.38
2023-02-25T00:26:22.466Z,20.63
2023-02-25T00:28:50.871Z,19.70
2023-02-25T00:31:23.304Z,21.98
2023-02-25T00:33:52.145Z,22.40
2023-02-25T00:36:24.064Z,20.42
2023-02-25T00:38:54.771Z,24.05
2023-02-25T00:41:27.046Z,33.70
2023-02-25T00:44:02.392Z,21.83
2023-02-25T00:46:30.856Z,18.65
2023-02-25T00:48:59.744Z,18.75
2023-02-25T00:51:30.136Z,22.50
2023-02-25T00:53:57.809Z,19.25
2023-02-25T00:56:26.202Z,20.33
2023-02-25T00:58:56.124Z,21.90
2023-02-25T01:01:33.631Z,18.48
2023-02-25T01:04:04.149Z,22.80
2023-02-25T01:06:34.311Z,23.55
2023-02-25T01:09:01.956Z,21.42
2023-02-25T01:11:35.535Z,24.35
2023-02-25T01:14:08.733Z,21.33
2023-02-25T01:16:37.801Z,20.60
2023-02-25T01:19:13.021Z,24.17
2023-02-25T01:21:44.069Z,21.65
2023-02-25T01:24:15.159Z,23.10
2023-02-25T01:26:44.701Z,21.25
2023-02-25T01:29:16.572Z,20.80
2023-02-25T01:31:47.615Z,20.42
2023-02-25T01:34:21.192Z,21.80
2023-02-25T01:36:49.028Z,18.88
2023-02-25T01:39:21.981Z,23.08
2023-02-25T01:41:53.558Z,24.50
2023-02-25T01:44:25.626Z,21.27
2023-02-25T01:46:56.315Z,21.17
2023-02-25T01:49:37.721Z,20.88
2023-02-25T01:52:11.758Z,20.23
2023-02-25T01:54:40.376Z,22.23
2023-02-25T01:57:10.576Z,20.35
2023-02-25T01:59:40.573Z,22.80
2023-02-25T02:02:19.756Z,18.23
2023-02-25T02:04:51.631Z,23.02
2023-02-25T02:07:24.969Z,19.67
2023-02-25T02:09:58.718Z,22.27
2023-02-25T02:12:40.928Z,19.33
2023-02-25T02:15:12.830Z,22.90
2023-02-25T02:17:44.478Z,20.58
2023-02-25T02:20:26.841Z,20.10
2023-02-25T02:23:12.733Z,20.58
2023-02-25T02:25:52.840Z,22.42
2023-02-25T02:28:32.798Z,19.65
2023-02-25T02:31:24.579Z,20.95
2023-02-25T02:34:10.455Z,19.08
2023-02-25T02:37:19.203Z,19.02
2023-02-25T02:40:16.006Z,18.65
2023-02-25T02:43:09.873Z,17.23
2023-02-25T02:45:53.157Z,18.20
2023-02-25T02:48:41.735Z,18.83
2023-02-25T02:51:16.400Z,18.35
2023-02-25T02:53:51.444Z,17.02
2023-02-25T02:56:22.207Z,20.27
2023-02-25T02:59:15.409Z,18.02
2023-02-25T03:01:47.371Z,19.23
2023-02-25T03:04:19.425Z,21.30
2023-02-25T03:06:52.336Z,17.75
2023-02-25T03:09:24.759Z,16.23
2023-02-25T03:11:52.585Z,16.50
2023-02-25T03:14:20.268Z,24.10
2023-02-25T03:17:10.123Z,20.85
2023-02-25T03:19:56.935Z,18.17
2023-02-25T03:22:33.483Z,22.05
2023-02-25T03:25:14.800Z,22.15
2023-02-25T03:27:47.935Z,19.02
2023-02-25T03:30:29.585Z,22.90
2023-02-25T03:33:12.046Z,18.10
2023-02-25T03:35:40.714Z,21.98
2023-02-25T03:38:12.864Z,18.73
2023-02-25T03:40:42.378Z,20.08
2023-02-25T03:43:17.822Z,22.23
2023-02-25T03:45:45.992Z,21.00
2023-02-25T03:48:16.277Z,19.40
2023-02-25T03:50:48.808Z,22.58
2023-02-25T03:56:14.369Z,16.45
2023-02-25T03:58:44.500Z,20.05
2023-02-25T04:01:19.792Z,19.25
2023-02-25T04:03:47.529Z,21.83
2023-02-25T04:06:16.434Z,21.05
2023-02-25T04:08:44.024Z,19.50
2023-02-25T04:11:11.253Z,20.17
2023-02-25T04:13:39.010Z,19.95
2023-02-25T04:16:09.309Z,22.75
2023-02-25T04:18:37.042Z,21.85
2023-02-25T04:21:10.264Z,25.45
2023-02-25T04:23:37.582Z,21.88
2023-02-25T04:26:07.675Z,19.50
2023-02-25T04:28:35.221Z,23.45
2023-02-25T04:31:03.455Z,21.30
2023-02-25T04:33:31.197Z,20.92
2023-02-25T04:35:58.503Z,13.95
2023-02-25T04:38:25.982Z,19.90
2023-02-25T04:40:55.380Z,23.55
2023-02-25T04:43:22.700Z,26.75
2023-02-25T04:45:50.014Z,25.77
2023-02-25T04:48:24.315Z,23.10
2023-02-25T04:50:51.573Z,21.08
2023-02-25T04:53:18.790Z,18.65
2023-02-25T04:55:45.973Z,18.63
2023-02-25T04:58:13.274Z,59.47
2023-02-25T05:00:47.642Z,29.58
2023-02-25T05:03:15.387Z,29.08
2023-02-25T05:05:42.819Z,21.70
2023-02-25T05:08:10.000Z,18.88
2023-02-25T05:10:37.181Z,26.00
2023-02-25T05:13:04.266Z,27.17
2023-02-25T05:15:31.479Z,24.25
2023-02-25T05:17:58.619Z,23.85
2023-02-25T05:20:25.816Z,26.20
2023-02-25T05:22:53.185Z,23.00
2023-02-25T05:25:20.429Z,21.75
2023-02-25T05:27:48.139Z,24.38
2023-02-25T05:30:15.792Z,25.73
2023-02-25T05:32:43.069Z,26.27
2023-02-25T05:35:11.026Z,24.30
2023-02-25T05:37:38.414Z,22.88
2023-02-25T05:40:07.317Z,21.40
2023-02-25T05:42:34.518Z,22.20
2023-02-25T05:45:01.653Z,18.42
2023-02-25T05:47:29.086Z,15.45
2023-02-25T05:49:56.272Z,16.00
2023-02-25T05:52:23.490Z,16.33
2023-02-25T05:54:50.551Z,11.90
2023-02-25T05:57:17.718Z,11.90
2023-02-25T05:59:45.039Z,10.73
2023-02-25T06:02:12.293Z,10.20
2023-02-25T06:04:39.441Z,15.20
2023-02-25T06:07:07.235Z,13.52
2023-02-25T06:09:34.802Z,12.77
2023-02-25T06:12:02.107Z,10.10
2023-02-25T06:14:29.246Z,7.43
2023-02-25T06:16:57.029Z,7.60
2023-02-25T06:19:26.480Z,7.03
2023-02-25T06:21:54.942Z,5.10
2023-02-25T06:24:23.060Z,9.50
2023-02-25T06:26:50.530Z,4.93
2023-02-25T06:29:17.660Z,9.45
2023-02-25T06:31:45.094Z,9.48
2023-02-25T06:34:12.429Z,8.27
2023-02-25T06:36:39.711Z,6.20
2023-02-25T06:39:06.918Z,6.53
2023-02-25T06:41:33.924Z,6.63
2023-02-25T06:44:01.051Z,4.20
2023-02-25T06:46:28.566Z,2.50
2023-02-25T06:48:56.168Z,11.18
2023-02-25T06:51:23.681Z,15.13
2023-02-25T06:53:53.216Z,11.25
2023-02-25T06:56:22.141Z,6.85
2023-02-25T06:58:53.579Z,5.38
2023-02-25T07:01:21.102Z,7.38
2023-02-25T07:03:48.451Z,3.97
2023-02-25T07:06:16.113Z,5.88
2023-02-25T07:08:43.561Z,6.03
2023-02-25T07:11:20.349Z,3.17
2023-02-25T07:13:49.670Z,2.03
2023-02-25T07:16:17.646Z,3.55
2023-02-25T07:18:45.536Z,2.10
2023-02-25T07:21:13.813Z,6.20
2023-02-25T07:23:41.497Z,11.30
2023-02-25T07:26:11.660Z,3.25
2023-02-25T07:28:39.521Z,7.20
2023-02-25T07:31:13.072Z,5.80
2023-02-25T07:33:41.975Z,8.65
2023-02-25T07:36:10.598Z,4.72
2023-02-25T07:38:39.625Z,3.33
2023-02-25T07:41:09.549Z,3.22
2023-02-25T07:43:36.909Z,2.65
2023-02-25T07:46:05.096Z,3.40
2023-02-25T07:48:33.290Z,2.58
2023-02-25T07:51:08.972Z,3.67
2023-02-25T07:53:36.351Z,3.65
2023-02-25T07:56:06.196Z,4.68
2023-02-25T07:58:33.702Z,5.03
2023-02-25T08:01:03.556Z,2.50
2023-02-25T08:03:30.803Z,3.17
2023-02-25T08:05:59.620Z,2.60
2023-02-25T08:08:27.895Z,1.58
2023-02-25T08:10:55.273Z,2.08
2023-02-25T08:13:22.404Z,0.85
2023-02-25T08:15:49.547Z,1.67
2023-02-25T08:18:20.047Z,2.67
2023-02-25T08:20:47.986Z,2.42
2023-02-25T08:23:15.314Z,2.35
2023-02-25T08:25:42.752Z,1.58
2023-02-25T08:28:10.528Z,4.00
2023-02-25T08:30:38.306Z,6.75
2023-02-25T08:33:06.862Z,16.20
2023-02-25T08:35:34.049Z,8.13
2023-02-25T08:38:01.365Z,7.15
2023-02-25T08:40:28.496Z,4.00
2023-02-25T08:42:55.836Z,6.35
2023-02-25T08:45:22.985Z,3.85
2023-02-25T08:47:50.317Z,3.30
2023-02-25T08:50:20.239Z,2.47
2023-02-25T08:52:47.488Z,3.67
2023-02-25T08:55:15.123Z,3.17
2023-02-25T08:57:43.382Z,5.13
2023-02-25T09:00:15.500Z,8.82
2023-02-25T09:02:43.386Z,4.95
2023-02-25T09:05:10.951Z,8.20
2023-02-25T09:07:38.128Z,5.10
2023-02-25T09:10:10.293Z,4.43
2023-02-25T09:12:38.563Z,3.58
2023-02-25T09:15:07.603Z,40.75
2023-02-25T09:17:35.196Z,14.90
2023-02-25T09:20:06.693Z,6.28
2023-02-25T09:22:35.225Z,4.47
2023-02-25T09:25:03.916Z,6.50
2023-02-25T09:27:31.194Z,4.60
2023-02-25T09:29:58.368Z,5.32
2023-02-25T09:32:26.047Z,4.68
2023-02-25T09:34:53.421Z,6.63
2023-02-25T09:37:21.774Z,17.80
2023-02-25T09:39:49.044Z,26.30
2023-02-25T09:43:06.104Z,16.58
2023-02-25T09:45:34.983Z,5.70
2023-02-25T09:48:10.254Z,3.05
2023-02-25T09:50:43.324Z,2.60
2023-02-25T09:53:23.535Z,3.38
2023-02-25T09:55:53.207Z,2.67
2023-02-25T09:58:29.687Z,4.03
2023-02-25T10:01:14.446Z,1.65
2023-02-25T10:03:55.170Z,1.75
2023-02-25T10:06:34.508Z,2.17
2023-02-25T10:09:54.046Z,2.08
2023-02-25T10:12:39.734Z,1.65
2023-02-25T10:15:37.724Z,2.63
2023-02-25T10:18:29.996Z,0.93
2023-02-25T10:21:09.133Z,3.88
2023-02-25T10:23:50.542Z,3.70
2023-02-25T10:26:24.717Z,6.00
2023-02-25T10:29:00.404Z,2.70
2023-02-25T10:31:32.258Z,2.97
2023-02-25T10:34:22.175Z,0.90
2023-02-25T10:36:59.968Z,4.22
2023-02-25T10:39:28.636Z,3.53
2023-02-25T10:41:56.012Z,1.70
2023-02-25T10:44:23.214Z,1.15
2023-02-25T10:47:01.749Z,5.13
2023-02-25T10:49:30.564Z,3.17
2023-02-25T10:52:19.584Z,1.70
2023-02-25T10:54:49.698Z,2.83
2023-02-25T10:57:40.509Z,2.70
2023-02-25T11:00:23.334Z,2.55
2023-02-25T11:02:51.901Z,1.65
2023-02-25T11:05:36.970Z,2.83
2023-02-25T11:08:07.905Z,3.67
2023-02-25T11:10:35.397Z,4.20
2023-02-25T11:13:05.372Z,1.58
2023-02-25T11:15:45.251Z,1.80
2023-02-25T11:18:32.311Z,4.32
2023-02-25T11:21:07.473Z,0.65
2023-02-25T11:23:36.691Z,3.08
2023-02-25T11:26:06.687Z,2.10
2023-02-25T11:28:41.053Z,1.58
2023-02-25T11:31:15.664Z,4.72
2023-02-25T11:33:49.581Z,1.77
2023-02-25T11:36:25.360Z,3.33
2023-02-25T11:39:04.818Z,1.63
2023-02-25T11:41:32.426Z,2.38
2023-02-25T11:44:31.865Z,7.28
2023-02-25T11:47:08.436Z,5.22
2023-02-25T11:49:42.795Z,2.88
2023-02-25T11:52:44.028Z,4.28
2023-02-25T11:55:45.481Z,2.35
2023-02-25T11:58:17.526Z,1.15
2023-02-25T12:01:05.115Z,4.03
2023-02-25T12:03:43.665Z,7.18
2023-02-25T12:06:34.912Z,1.45
2023-02-25T12:09:37.286Z,1.50
2023-02-25T12:12:44.109Z,1.73
2023-02-25T12:15:32.041Z,1.30
2023-02-25T12:18:08.580Z,2.05
2023-02-25T12:20:59.826Z,1.67
2023-02-25T12:23:55.093Z,0.50
2023-02-25T12:26:58.825Z,4.70
2023-02-25T12:29:47.387Z,1.92
2023-02-25T12:32:45.534Z,1.05
2023-02-25T12:35:38.732Z,1.20
2023-02-25T12:41:16.949Z,1.33
2023-02-25T12:44:03.387Z,2.50
2023-02-25T12:46:49.842Z,0.80
2023-02-25T12:49:20.114Z,1.95
2023-02-25T12:52:26.640Z,2.30
2023-02-25T12:55:19.383Z,1.23
2023-02-25T12:58:09.557Z,1.67
2023-02-25T13:01:01.312Z,0.40
2023-02-25T13:04:01.645Z,0.85
2023-02-25T13:07:00.236Z,3.25
2023-02-25T13:09:44.195Z,2.63
2023-02-25T13:12:29.352Z,1.48
2023-02-25T13:15:21.020Z,1.33
2023-02-25T13:18:25.900Z,4.50
2023-02-25T13:21:13.780Z,1.20
2023-02-25T13:24:06.387Z,6.38
2023-02-25T13:26:52.267Z,3.75
2023-02-25T13:29:19.497Z,3.58
2023-02-25T13:32:16.378Z,2.80
2023-02-25T13:34:55.708Z,0.60
2023-02-25T13:37:43.588Z,2.42
2023-02-25T13:40:48.815Z,1.88
2023-02-25T13:43:44.396Z,7.13
2023-02-25T13:46:40.349Z,8.05
2023-02-25T13:49:07.836Z,11.35
2023-02-25T13:52:02.533Z,9.32
2023-02-25T13:54:53.831Z,20.92
2023-02-25T13:57:25.068Z,18.52
2023-02-25T14:00:26.707Z,24.48
2023-02-25T14:03:49.111Z,4.72
2023-02-25T14:06:49.687Z,4.00
2023-02-25T14:09:34.954Z,3.80
2023-02-25T14:12:39.320Z,8.27
2023-02-25T14:15:29.638Z,1.35
2023-02-25T14:18:12.596Z,1.17
2023-02-25T14:23:14.852Z,2.10
2023-02-25T14:25:58.469Z,1.27
2023-02-25T14:28:41.153Z,0.70
2023-02-25T14:31:45.788Z,2.58
2023-02-25T14:35:01.257Z,3.05
2023-02-25T14:37:34.661Z,2.72
2023-02-25T14:40:22.248Z,1.23
2023-02-25T14:43:17.134Z,1.00
2023-02-25T14:45:53.116Z,1.20
2023-02-25T14:48:24.077Z,1.15
2023-02-25T14:51:22.363Z,0.52
2023-02-25T14:54:05.867Z,6.22
2023-02-25T14:57:07.584Z,2.45
2023-02-25T15:00:12.611Z,3.45
2023-02-25T15:02:50.715Z,5.32
2023-02-25T15:05:39.906Z,3.05
2023-02-25T15:08:37.390Z,1.88
2023-02-25T15:11:32.143Z,0.73
2023-02-25T15:14:02.091Z,2.05
2023-02-25T15:16:35.827Z,6.70
2023-02-25T15:19:35.183Z,2.40
2023-02-25T15:22:19.939Z,1.73
2023-02-25T15:24:48.165Z,0.90
2023-02-25T15:27:37.257Z,1.50
2023-02-25T15:30:06.680Z,1.40
2023-02-25T15:33:12.212Z,1.05
2023-02-25T15:35:40.267Z,4.72
2023-02-25T15:38:15.074Z,1.42
2023-02-25T15:40:46.179Z,2.53
2023-02-25T15:43:14.395Z,3.42
2023-02-25T15:45:48.062Z,0.75
2023-02-25T15:48:25.411Z,3.15
2023-02-25T15:50:53.803Z,4.63
2023-02-25T15:53:24.812Z,4.65
2023-02-25T15:56:04.742Z,1.42
2023-02-25T15:58:32.666Z,2.28
2023-02-25T16:01:07.237Z,3.30
2023-02-25T16:03:35.407Z,3.35
2023-02-25T16:06:16.926Z,2.08
2023-02-25T16:08:57.803Z,1.95
2023-02-25T16:11:39.520Z,4.60
2023-02-25T16:14:32.092Z,3.40
2023-02-25T16:17:05.587Z,3.08
2023-02-25T16:19:39.870Z,3.33
2023-02-25T16:22:20.424Z,3.97
2023-02-25T16:24:54.597Z,19.38
2023-02-25T16:28:04.992Z,20.88
2023-02-25T16:30:44.775Z,56.75
2023-02-25T16:33:35.770Z,39.65
2023-02-25T16:36:38.565Z,44.63
2023-02-25T16:39:18.875Z,22.90
2023-02-25T16:41:47.505Z,16.95
2023-02-25T16:44:38.133Z,22.42
2023-02-25T16:47:27.767Z,7.32
2023-02-25T16:49:58.922Z,5.15
2023-02-25T16:52:38.334Z,9.27
2023-02-25T16:55:13.032Z,10.27
2023-02-25T16:57:42.304Z,4.82
2023-02-25T17:00:20.754Z,4.95
2023-02-25T17:02:51.392Z,6.75
2023-02-25T17:05:33.078Z,12.07
2023-02-25T17:08:02.861Z,17.83
2023-02-25T17:10:32.452Z,18.00
2023-02-25T17:13:03.521Z,12.75
2023-02-25T17:15:36.364Z,4.35
2023-02-25T17:18:12.007Z,4.65
2023-02-25T17:20:41.578Z,3.33
2023-02-25T17:23:13.847Z,5.03
2023-02-25T17:25:47.053Z,4.32
2023-02-25T17:28:26.186Z,12.43
2023-02-25T17:31:03.599Z,11.95
2023-02-25T17:33:32.719Z,11.48
2023-02-25T17:36:09.687Z,24.83
2023-02-25T17:38:39.233Z,28.13
2023-02-25T17:41:07.747Z,27.42
2023-02-25T17:43:39.839Z,33.92
2023-02-25T17:46:30.142Z,8.70
2023-02-25T17:49:21.923Z,16.85
2023-02-25T17:51:59.088Z,41.78
2023-02-25T17:54:29.228Z,137.88
2023-02-25T17:57:10.486Z,76.50
2023-02-25T17:59:40.889Z,15.20
2023-02-25T18:02:37.142Z,15.68
2023-02-25T18:05:14.344Z,36.85
2023-02-25T18:08:11.029Z,50.90
2023-02-25T18:10:38.899Z,16.75
2023-02-25T18:13:17.311Z,20.73
2023-02-25T18:15:50.802Z,11.57
2023-02-25T18:18:23.548Z,17.65
2023-02-25T18:20:59.422Z,6.55
2023-02-25T18:23:31.753Z,6.85
2023-02-25T18:26:27.190Z,8.02
2023-02-25T18:28:58.198Z,5.20
2023-02-25T18:31:27.124Z,4.55
2023-02-25T18:33:55.794Z,52.45
2023-02-25T18:36:27.212Z,5.75
2023-02-25T18:39:00.847Z,3.20
2023-02-25T18:41:28.496Z,3.20
2023-02-25T18:43:56.679Z,28.80
2023-02-25T18:46:25.143Z,12.48
2023-02-25T18:48:53.184Z,33.03
2023-02-25T18:51:21.254Z,18.52
2023-02-25T18:53:51.027Z,6.55
2023-02-25T18:56:19.692Z,8.73
2023-02-25T18:58:48.147Z,3.92
2023-02-25T19:01:26.344Z,13.23
2023-02-25T19:03:59.928Z,19.67
2023-02-25T19:06:33.930Z,18.17
2023-02-25T19:09:02.114Z,10.40
2023-02-25T19:11:36.519Z,7.65
2023-02-25T19:14:08.969Z,48.17
2023-02-25T19:16:37.326Z,32.35
2023-02-25T19:19:05.275Z,9.68
2023-02-25T19:21:34.636Z,6.18
2023-02-25T19:24:02.805Z,3.72
2023-02-25T19:26:33.354Z,6.97
2023-02-25T19:29:01.830Z,7.80
2023-02-25T19:31:30.612Z,12.80
2023-02-25T19:33:59.393Z,18.27
2023-02-25T19:36:29.042Z,12.48
2023-02-25T19:38:57.230Z,8.40
2023-02-25T19:41:26.442Z,7.50
2023-02-25T19:43:54.644Z,12.98
2023-02-25T19:46:23.671Z,7.40
2023-02-25T19:48:53.302Z,10.40
2023-02-25T19:51:21.585Z,11.27
2023-02-25T19:53:52.426Z,17.30
2023-02-25T19:56:20.659Z,20.70
2023-02-25T19:58:48.583Z,14.00
2023-02-25T20:01:16.865Z,38.92
2023-02-25T20:03:44.826Z,39.42
2023-02-25T20:06:18.716Z,20.45
2023-02-25T20:08:53.094Z,24.48
2023-02-25T20:11:23.896Z,18.23
2023-02-25T20:13:51.760Z,30.48
2023-02-25T20:16:21.882Z,26.35
2023-02-25T20:18:53.927Z,47.92
2023-02-25T20:21:24.122Z,27.43
2023-02-25T20:23:53.688Z,14.93
2023-02-25T20:26:24.890Z,9.15
2023-02-25T20:28:56.821Z,15.05
2023-02-25T20:31:25.992Z,13.07
2023-02-25T20:33:57.634Z,9.68
2023-02-25T20:36:33.479Z,9.05
2023-02-25T20:39:25.008Z,29.42
2023-02-25T20:41:54.627Z,7.57
2023-02-25T20:44:24.085Z,7.55
2023-02-25T20:46:52.258Z,14.32
2023-02-25T20:49:21.414Z,9.85
2023-02-25T20:51:50.610Z,3.47
2023-02-25T20:54:19.871Z,4.55
2023-02-25T20:56:49.295Z,15.80
2023-02-25T20:59:17.996Z,6.03
2023-02-25T21:01:46.017Z,6.85
2023-02-25T21:04:14.075Z,4.88
2023-02-25T21:06:43.624Z,4.97
2023-02-25T21:09:11.438Z,6.88
2023-02-25T21:11:39.768Z,4.60
2023-02-25T21:14:10.460Z,8.15
2023-02-25T21:16:39.509Z,8.27
2023-02-25T21:19:09.143Z,5.32
2023-02-25T21:21:38.918Z,8.30
2023-02-25T21:24:10.111Z,6.70
2023-02-25T21:26:40.431Z,8.48
2023-02-25T21:29:10.738Z,8.70
2023-02-25T21:31:40.033Z,5.70
2023-02-25T21:34:12.329Z,16.73
2023-02-25T21:36:40.970Z,4.63
2023-02-25T21:39:09.764Z,11.55
2023-02-25T21:41:39.585Z,11.60
2023-02-25T21:44:08.152Z,6.35
2023-02-25T21:46:35.628Z,5.38
2023-02-25T21:49:03.091Z,5.10
2023-02-25T21:51:30.413Z,5.13
2023-02-25T21:53:59.743Z,8.40
2023-02-25T21:56:28.004Z,7.53
2023-02-25T21:59:03.669Z,10.43
2023-02-25T22:01:35.033Z,12.63
2023-02-25T22:04:02.802Z,15.48
2023-02-25T22:06:30.500Z,11.93
2023-02-25T22:08:58.759Z,15.70
2023-02-25T22:11:31.904Z,11.95
2023-02-25T22:14:00.579Z,11.10
2023-02-25T22:16:28.517Z,7.70
2023-02-25T22:18:57.216Z,7.68
2023-02-25T22:21:30.478Z,6.00
2023-02-25T22:23:59.777Z,5.20
2023-02-25T22:26:33.204Z,2.97
2023-02-25T22:29:02.908Z,5.75
2023-02-25T22:31:30.730Z,5.50
2023-02-25T22:33:58.205Z,4.03
2023-02-25T22:36:26.127Z,3.75
2023-02-25T22:38:54.095Z,4.43
2023-02-25T22:41:27.052Z,3.30
2023-02-25T22:43:55.016Z,4.35
2023-02-25T22:46:28.714Z,3.97
2023-02-25T22:48:56.873Z,4.10
2023-02-25T22:51:25.580Z,4.13
2023-02-25T22:53:53.421Z,4.78
2023-02-25T22:56:21.161Z,3.90
2023-02-25T22:58:48.364Z,5.20
2023-02-25T23:01:19.422Z,3.97
2023-02-25T23:03:47.756Z,4.95
2023-02-25T23:06:16.627Z,4.13
2023-02-25T23:08:44.229Z,9.48
2023-02-25T23:11:14.416Z,6.07
2023-02-25T23:13:52.579Z,6.45
2023-02-25T23:16:23.010Z,3.35
2023-02-25T23:18:51.185Z,4.85
2023-02-25T23:21:19.970Z,4.43
2023-02-25T23:23:49.461Z,3.25
2023-02-25T23:26:20.294Z,2.78
2023-02-25T23:28:48.083Z,1.63
2023-02-25T23:31:23.954Z,2.45
2023-02-25T23:33:54.661Z,3.75
2023-02-25T23:36:22.030Z,1.35
2023-02-25T23:38:56.755Z,2.17
2023-02-25T23:41:24.867Z,1.83
2023-02-25T23:43:53.533Z,2.58
2023-02-25T23:46:21.505Z,5.63
2023-02-25T23:48:49.016Z,1.63
2023-02-25T23:51:16.218Z,3.35
2023-02-25T23:53:43.361Z,2.70
2023-02-25T23:56:12.552Z,1.90
2023-02-25T23:58:40.136Z,2.28
